Time;durP1;ratioP1;P1;durP2;ratioP2;P2;SDS_P1;SDS_P2;PMS_P1;PMS_P2;Temp;Humidity;BMP_temperature;BMP_pressure;BME280_temperature;BME280_humidity;BME280_pressure;Samples;Min_cycle;Max_cycle;Signal;HPM_P1;HPM_P2
2023/02/02 00:00:49;;;;;;;42.17;26.33;;;15.30;64.20;;;;;;5045905;28;20051;-18
2023/02/02 00:03:15;;;;;;;40.92;25.88;;;15.20;64.10;;;;;;5060833;28;20045;-26
2023/02/02 00:05:45;;;;;;;43.55;27.00;;;15.10;64.20;;;;;;5047200;28;20031;-26
2023/02/02 00:08:10;;;;;;;39.90;25.52;;;15.10;64.40;;;;;;5044637;28;20037;-16
2023/02/02 00:10:36;;;;;;;40.60;25.73;;;15.20;64.10;;;;;;5060151;28;20521;-14
2023/02/02 00:13:02;;;;;;;41.08;25.67;;;15.20;64.40;;;;;;5045611;28;20044;-17
2023/02/02 00:15:27;;;;;;;39.95;25.55;;;15.20;64.40;;;;;;5043277;28;20500;-38
2023/02/02 00:17:53;;;;;;;38.28;25.00;;;15.10;64.40;;;;;;5041942;28;20128;-28
2023/02/02 00:20:18;;;;;;;39.85;24.92;;;15.10;64.50;;;;;;5058083;28;20044;-29
2023/02/02 00:22:44;;;;;;;36.92;24.65;;;15.10;64.50;;;;;;5057649;28;20033;-39
2023/02/02 00:25:09;;;;;;;37.97;23.17;;;15.20;64.40;;;;;;5057338;28;20029;-26
2023/02/02 00:27:35;;;;;;;36.30;22.85;;;15.10;64.60;;;;;;5059982;28;20037;-32
2023/02/02 00:30:00;;;;;;;31.75;21.77;;;15.10;64.60;;;;;;5053149;28;20147;-15
2023/02/02 00:32:26;;;;;;;34.90;23.35;;;15.00;64.60;;;;;;5064843;28;20446;-27
2023/02/02 00:34:51;;;;;;;31.40;21.42;;;15.10;64.50;;;;;;5053072;28;20076;-16
2023/02/02 00:37:17;;;;;;;32.00;21.63;;;15.10;64.40;;;;;;5044714;28;20222;-24
2023/02/02 00:39:43;;;;;;;34.10;22.02;;;15.10;64.50;;;;;;5051506;28;20520;-16
2023/02/02 00:42:10;;;;;;;32.05;21.38;;;15.10;64.60;;;;;;5057310;28;20025;-15
2023/02/02 00:47:21;;;;;;;31.25;20.77;;;15.10;64.50;;;;;;5040299;28;20040;-15
2023/02/02 00:49:46;;;;;;;33.15;22.20;;;15.10;64.40;;;;;;5062146;28;20060;-29
2023/02/02 00:52:12;;;;;;;32.08;20.85;;;15.00;64.50;;;;;;5059394;28;20049;-17
2023/02/02 00:54:37;;;;;;;31.48;21.55;;;15.00;64.50;;;;;;5044200;28;20496;-15
2023/02/02 00:57:03;;;;;;;29.00;19.77;;;15.00;64.70;;;;;;5043034;28;20154;-16
2023/02/02 00:59:29;;;;;;;32.03;20.15;;;15.10;64.60;;;;;;5043657;28;20041;-16
2023/02/02 01:01:54;;;;;;;27.25;19.05;;;15.10;64.30;;;;;;5046485;28;20063;-20
2023/02/02 01:04:20;;;;;;;29.88;20.00;;;15.10;64.30;;;;;;5047275;28;20036;-15
2023/02/02 01:06:45;;;;;;;28.15;18.85;;;15.10;65.10;;;;;;5043857;28;20052;-20
2023/02/02 01:09:11;;;;;;;26.92;19.10;;;15.10;64.30;;;;;;5048484;28;20029;-16
2023/02/02 01:11:36;;;;;;;29.80;19.00;;;15.00;64.20;;;;;;5047949;28;20048;-26
2023/02/02 01:14:02;;;;;;;27.23;17.60;;;15.10;64.30;;;;;;5042657;28;20041;-32
2023/02/02 01:16:28;;;;;;;25.35;17.30;;;15.10;65.10;;;;;;5047645;28;20361;-23
2023/02/02 01:18:54;;;;;;;28.33;18.90;;;15.00;64.40;;;;;;5045870;28;20060;-34
2023/02/02 01:21:19;;;;;;;25.50;17.75;;;15.00;64.50;;;;;;5054048;28;20048;-20
2023/02/02 01:23:45;;;;;;;26.65;18.00;;;15.10;64.30;;;;;;5046602;28;20052;-23
2023/02/02 01:26:11;;;;;;;25.27;17.80;;;15.00;64.50;;;;;;5046088;28;20430;-17
2023/02/02 01:28:37;;;;;;;24.10;17.35;;;15.00;64.40;;;;;;5064209;28;20396;-34
2023/02/02 01:31:07;;;;;;;24.08;17.00;;;15.00;64.40;;;;;;5068756;28;20055;-29
2023/02/02 01:33:33;;;;;;;25.77;16.08;;;15.00;64.40;;;;;;5059123;28;20037;-21
2023/02/02 01:36:02;;;;;;;23.08;16.05;;;15.00;64.30;;;;;;5049144;28;20699;-16
2023/02/02 01:38:28;;;;;;;22.35;15.93;;;15.10;64.10;;;;;;5067022;28;20033;-15
2023/02/02 01:40:54;;;;;;;24.10;16.17;;;15.10;64.20;;;;;;5057000;28;20051;-14
2023/02/02 01:43:25;;;;;;;23.67;15.63;;;15.10;64.20;;;;;;5047724;28;21006;-22
2023/02/02 01:45:52;;;;;;;22.58;15.63;;;15.00;64.20;;;;;;5055601;28;20680;-14
2023/02/02 01:48:22;;;;;;;20.23;15.07;;;15.00;64.30;;;;;;5056758;28;20045;-14
2023/02/02 01:50:48;;;;;;;20.85;14.82;;;15.00;64.10;;;;;;5053491;28;20139;-9
2023/02/02 01:53:14;;;;;;;20.52;14.25;;;15.00;64.30;;;;;;5065272;28;20077;-9
2023/02/02 01:55:40;;;;;;;22.63;14.88;;;15.10;64.20;;;;;;5047706;28;20025;-9
2023/02/02 01:58:13;;;;;;;21.40;14.15;;;15.10;64.20;;;;;;5071687;28;20048;-9
2023/02/02 02:00:39;;;;;;;20.65;14.50;;;15.10;64.00;;;;;;5046161;28;20070;-9
2023/02/02 02:03:08;;;;;;;20.08;14.48;;;15.10;64.00;;;;;;5060906;28;20416;-9
2023/02/02 02:05:37;;;;;;;21.85;13.93;;;15.10;64.10;;;;;;5047618;28;20025;-10
2023/02/02 02:08:27;;;;;;;19.48;14.15;;;15.10;64.00;;;;;;5027330;28;20064;-10
2023/02/02 02:10:53;;;;;;;20.30;14.45;;;15.00;64.10;;;;;;5070220;28;20131;-9
2023/02/02 02:13:20;;;;;;;19.67;14.02;;;15.00;65.00;;;;;;5058032;28;20948;-9
2023/02/02 02:18:49;;;;;;;19.00;13.55;;;15.00;64.40;;;;;;5058902;28;20067;-9
2023/02/02 02:26:32;;;;;;;18.40;12.98;;;15.00;64.40;;;;;;5044149;28;20048;-10
2023/02/02 02:27:47;;;;;;;18.83;13.45;;;15.00;64.20;;;;;;5059525;28;20037;-9
2023/02/02 02:30:24;;;;;;;17.48;12.80;;;14.90;64.20;;;;;;5058130;28;20048;-9
2023/02/02 02:32:59;;;;;;;15.85;12.65;;;15.00;64.10;;;;;;5064677;28;20041;-9
2023/02/02 02:35:53;;;;;;;18.42;12.60;;;15.00;64.30;;;;;;5065384;28;20044;-9
2023/02/02 02:38:48;;;;;;;17.13;12.30;;;15.10;64.00;;;;;;5058147;28;20075;-9
2023/02/02 02:41:20;;;;;;;16.42;12.38;;;15.00;63.90;;;;;;5053771;28;20049;-9
2023/02/02 02:44:00;;;;;;;17.13;11.13;;;15.00;63.90;;;;;;5062899;28;20057;-11
2023/02/02 02:46:25;;;;;;;18.38;12.07;;;15.00;64.00;;;;;;5050455;28;20040;-13
2023/02/02 02:48:51;;;;;;;14.43;11.18;;;15.00;64.90;;;;;;5053019;28;20067;-11
2023/02/02 02:51:39;;;;;;;16.77;12.23;;;14.90;64.20;;;;;;5043101;28;20041;-10
2023/02/02 02:54:04;;;;;;;16.00;11.05;;;15.00;64.10;;;;;;5064945;28;20033;-9
2023/02/02 02:56:37;;;;;;;13.88;10.63;;;15.00;63.90;;;;;;5056268;28;20044;-16
2023/02/02 02:59:27;;;;;;;13.07;10.25;;;15.10;63.80;;;;;;5045421;28;20053;-9
2023/02/02 03:02:32;;;;;;;13.27;11.25;;;15.20;63.30;;;;;;5042050;28;20041;-9
2023/02/02 03:05:10;;;;;;;13.90;10.45;;;15.10;63.40;;;;;;5043838;28;20052;-9
2023/02/02 03:07:41;;;;;;;13.27;10.60;;;15.00;63.90;;;;;;5050336;28;20605;-9
2023/02/02 03:10:07;;;;;;;15.43;10.88;;;15.00;63.90;;;;;;5051616;28;20671;-10
2023/02/02 03:12:33;;;;;;;11.32;9.65;;;15.00;63.90;;;;;;5042562;28;20167;-9
2023/02/02 03:14:58;;;;;;;11.82;9.95;;;15.20;63.60;;;;;;5051505;28;20496;-13
2023/02/02 03:17:26;;;;;;;10.68;9.40;;;15.10;63.60;;;;;;5048710;28;20122;-10
2023/02/02 03:19:52;;;;;;;12.18;9.13;;;15.00;63.60;;;;;;5069684;28;20052;-8
2023/02/02 03:22:17;;;;;;;13.20;9.30;;;15.10;63.60;;;;;;5048050;28;20552;-20
2023/02/02 03:24:43;;;;;;;9.93;8.40;;;15.10;64.60;;;;;;5043600;28;20160;-9
2023/02/02 03:27:08;;;;;;;9.02;7.70;;;15.00;63.60;;;;;;5049502;28;20068;-9
2023/02/02 03:29:34;;;;;;;12.43;9.00;;;15.10;63.50;;;;;;5062008;28;20505;-9
2023/02/02 03:31:59;;;;;;;12.45;9.18;;;15.00;63.60;;;;;;5066085;28;20132;-9
2023/02/02 03:34:25;;;;;;;10.50;8.30;;;15.10;63.50;;;;;;5046123;28;20029;-9
2023/02/02 03:36:50;;;;;;;11.05;8.43;;;15.10;63.50;;;;;;5042904;28;20044;-10
2023/02/02 03:39:16;;;;;;;10.00;8.15;;;15.10;63.30;;;;;;5054388;28;21279;-9
2023/02/02 03:41:42;;;;;;;10.85;8.43;;;15.10;63.30;;;;;;5065244;28;20079;-9
2023/02/02 03:44:07;;;;;;;9.77;8.25;;;15.10;63.40;;;;;;5053461;28;20495;-9
2023/02/02 03:46:34;;;;;;;9.35;8.00;;;15.10;63.30;;;;;;5041721;28;20037;-9
2023/02/02 03:48:59;;;;;;;10.07;8.35;;;15.10;63.20;;;;;;5054250;28;20036;-9
2023/02/02 03:51:25;;;;;;;9.57;8.07;;;15.10;63.40;;;;;;5047765;28;20033;-9
2023/02/02 03:53:50;;;;;;;9.70;8.45;;;14.90;63.80;;;;;;5043462;28;20040;-9
2023/02/02 03:56:18;;;;;;;9.65;7.93;;;15.00;63.90;;;;;;5049419;28;20041;-20
2023/02/02 03:58:45;;;;;;;9.52;8.23;;;15.00;63.80;;;;;;5047775;28;20144;-8
2023/02/02 04:01:10;;;;;;;8.75;7.65;;;15.00;63.80;;;;;;5060928;28;20048;-9
2023/02/02 04:03:36;;;;;;;9.57;7.60;;;15.10;63.60;;;;;;5055396;28;20033;-9
2023/02/02 04:06:02;;;;;;;8.85;7.95;;;15.00;63.80;;;;;;5047828;28;20045;-13
2023/02/02 04:08:27;;;;;;;8.15;7.30;;;15.00;63.80;;;;;;5058480;28;20037;-10
2023/02/02 04:10:53;;;;;;;8.48;6.95;;;15.00;63.60;;;;;;5042525;28;20059;-9
2023/02/02 04:13:19;;;;;;;8.20;6.90;;;15.10;63.80;;;;;;5050300;28;20446;-9
2023/02/02 04:15:44;;;;;;;9.32;7.82;;;15.00;63.40;;;;;;5049283;28;20075;-9
2023/02/02 04:18:10;;;;;;;10.57;7.15;;;15.00;63.60;;;;;;5042433;28;20396;-9
2023/02/02 04:20:35;;;;;;;9.65;7.43;;;15.00;63.70;;;;;;5046796;28;20072;-9
2023/02/02 04:23:01;;;;;;;9.02;7.40;;;15.00;63.70;;;;;;5041935;28;20075;-9
2023/02/02 04:25:26;;;;;;;8.02;7.20;;;15.00;64.70;;;;;;5043070;28;20481;-21
2023/02/02 04:27:52;;;;;;;7.47;6.60;;;15.00;63.70;;;;;;5049559;28;20032;-9
2023/02/02 04:30:18;;;;;;;8.20;7.22;;;15.00;64.00;;;;;;5052742;28;20418;-9
2023/02/02 04:32:44;;;;;;;7.40;6.65;;;15.00;63.80;;;;;;5042777;28;20045;-9
2023/02/02 04:35:10;;;;;;;7.28;6.57;;;15.00;64.70;;;;;;5046291;28;20393;-9
2023/02/02 04:37:35;;;;;;;8.00;7.15;;;15.00;63.90;;;;;;5057628;28;20120;-9
2023/02/02 04:40:01;;;;;;;6.95;6.25;;;15.00;64.00;;;;;;5059425;28;20033;-9
2023/02/02 04:42:27;;;;;;;6.63;5.97;;;15.00;64.20;;;;;;5054464;28;20629;-9
2023/02/02 04:44:52;;;;;;;7.30;6.25;;;15.00;63.70;;;;;;5062717;28;20179;-9
2023/02/02 04:47:18;;;;;;;7.72;6.43;;;15.00;63.60;;;;;;5082675;28;20479;-9
2023/02/02 04:49:43;;;;;;;6.72;6.10;;;15.00;64.00;;;;;;5058364;28;20047;-12
2023/02/02 04:52:12;;;;;;;6.15;5.55;;;14.90;63.80;;;;;;5047943;28;20036;-10
2023/02/02 04:54:37;;;;;;;6.93;6.10;;;15.00;63.80;;;;;;5067737;28;20048;-9
2023/02/02 04:57:03;;;;;;;6.40;5.80;;;15.10;63.40;;;;;;5065540;28;20048;-9
2023/02/02 04:59:29;;;;;;;6.57;5.97;;;15.20;63.30;;;;;;5051119;28;20057;-9
2023/02/02 05:01:58;;;;;;;6.43;5.82;;;15.10;63.40;;;;;;5044717;28;20518;-9
2023/02/02 05:04:23;;;;;;;6.85;5.97;;;15.00;63.50;;;;;;5057531;28;20573;-9
2023/02/02 05:06:49;;;;;;;7.03;5.95;;;14.90;64.00;;;;;;5048947;28;20041;-8
2023/02/02 05:09:15;;;;;;;6.03;5.45;;;15.10;63.90;;;;;;5050300;28;20036;-9
2023/02/02 05:11:43;;;;;;;6.28;5.68;;;15.00;64.00;;;;;;5065552;28;20052;-9
2023/02/02 05:14:09;;;;;;;5.88;5.38;;;15.00;64.90;;;;;;5062718;28;20072;-9
2023/02/02 05:16:34;;;;;;;6.75;6.15;;;15.10;63.40;;;;;;5052545;28;20032;-9
2023/02/02 05:19:00;;;;;;;6.00;5.50;;;15.00;63.80;;;;;;5044495;28;20033;-9
2023/02/02 05:21:25;;;;;;;5.43;4.93;;;15.00;64.00;;;;;;5047286;28;20041;-9
2023/02/02 05:23:51;;;;;;;6.22;5.63;;;15.20;63.90;;;;;;5046754;28;20601;-21
2023/02/02 05:26:21;;;;;;;6.07;5.47;;;15.20;63.30;;;;;;5052112;28;20529;-9
2023/02/02 05:28:47;;;;;;;5.50;5.00;;;15.00;64.10;;;;;;5054333;28;20930;-9
2023/02/02 05:31:13;;;;;;;5.20;4.72;;;15.10;63.50;;;;;;5044806;28;20048;-10
2023/02/02 05:33:38;;;;;;;5.72;5.15;;;15.10;63.70;;;;;;5055838;28;20040;-9
2023/02/02 05:36:04;;;;;;;5.63;5.03;;;15.10;63.60;;;;;;5045624;28;20041;-9
2023/02/02 05:38:30;;;;;;;5.88;5.30;;;15.00;63.80;;;;;;5049975;28;20045;-9
2023/02/02 05:40:56;;;;;;;6.50;5.90;;;15.00;63.90;;;;;;5051116;28;20056;-8
2023/02/02 05:43:24;;;;;;;5.55;5.05;;;15.00;64.00;;;;;;5059382;28;20044;-9
2023/02/02 05:45:50;;;;;;;5.72;5.22;;;15.00;63.90;;;;;;5063867;28;20082;-21
2023/02/02 05:48:15;;;;;;;5.82;5.32;;;15.00;63.70;;;;;;5037860;28;20076;-9
2023/02/02 05:50:41;;;;;;;5.55;5.05;;;15.00;63.90;;;;;;5041991;28;20083;-9
2023/02/02 05:53:07;;;;;;;5.50;5.00;;;14.90;63.90;;;;;;5077868;28;20036;-9
2023/02/02 05:55:33;;;;;;;6.80;5.40;;;15.10;63.50;;;;;;5052629;28;20401;-16
2023/02/02 05:57:58;;;;;;;5.78;5.22;;;15.00;64.00;;;;;;5043818;28;20041;-10
2023/02/02 06:00:24;;;;;;;4.97;4.63;;;15.00;64.00;;;;;;5045366;28;20128;-9
2023/02/02 06:02:49;;;;;;;5.15;4.70;;;14.90;64.20;;;;;;5062719;28;20109;-9
2023/02/02 06:05:15;;;;;;;4.88;4.47;;;14.90;64.20;;;;;;5048781;28;20045;-9
2023/02/02 06:07:41;;;;;;;5.30;4.80;;;14.90;64.20;;;;;;5050016;28;20053;-9
2023/02/02 06:10:06;;;;;;;5.40;4.88;;;15.00;64.10;;;;;;5044061;28;20045;-9
2023/02/02 06:12:32;;;;;;;5.72;5.32;;;14.90;64.40;;;;;;5042379;28;20492;-11
2023/02/02 06:14:58;;;;;;;4.88;4.40;;;14.90;64.10;;;;;;5047431;28;20170;-9
2023/02/02 06:17:23;;;;;;;5.32;4.82;;;14.80;64.40;;;;;;5046497;28;20107;-9
2023/02/02 06:19:49;;;;;;;5.25;4.80;;;14.80;64.40;;;;;;5052624;28;20356;-10
2023/02/02 06:22:14;;;;;;;5.25;4.75;;;14.90;64.40;;;;;;5038448;28;20053;-10
2023/02/02 06:24:40;;;;;;;5.07;4.63;;;14.90;64.20;;;;;;5044112;28;20083;-10
2023/02/02 06:27:05;;;;;;;4.82;4.43;;;14.80;64.50;;;;;;5043811;28;20041;-10
2023/02/02 06:29:31;;;;;;;4.95;4.45;;;14.80;64.50;;;;;;5043688;28;20466;-10
2023/02/02 06:31:57;;;;;;;4.75;4.13;;;14.80;64.40;;;;;;5041439;28;20040;-10
2023/02/02 06:34:22;;;;;;;4.28;3.97;;;14.80;64.70;;;;;;5051634;28;20053;-10
2023/02/02 06:36:48;;;;;;;4.60;4.20;;;14.80;64.70;;;;;;5041239;28;20519;-10
2023/02/02 06:39:13;;;;;;;4.45;4.05;;;14.80;64.50;;;;;;5052179;28;20048;-11
2023/02/02 06:41:39;;;;;;;4.32;4.03;;;14.90;64.20;;;;;;5046401;28;20048;-10
2023/02/02 06:44:05;;;;;;;4.47;4.07;;;14.90;64.10;;;;;;5045519;28;20048;-10
2023/02/02 06:46:30;;;;;;;4.32;4.03;;;14.80;64.60;;;;;;5046423;28;20052;-10
2023/02/02 06:48:56;;;;;;;4.22;3.92;;;14.80;64.50;;;;;;5044913;28;20132;-9
2023/02/02 06:51:21;;;;;;;4.57;4.28;;;14.90;64.20;;;;;;5038981;28;20049;-10
2023/02/02 06:53:48;;;;;;;3.88;3.58;;;14.90;64.10;;;;;;5044155;28;20080;-10
2023/02/02 06:56:13;;;;;;;4.30;3.95;;;15.00;64.00;;;;;;5048775;28;20127;-10
2023/02/02 06:58:39;;;;;;;4.10;3.80;;;14.90;64.30;;;;;;5058844;28;20044;-11
2023/02/02 07:01:07;;;;;;;4.25;3.95;;;14.90;64.20;;;;;;5038049;28;20075;-10
2023/02/02 07:03:32;;;;;;;4.03;3.83;;;15.00;64.00;;;;;;5019541;28;20132;-11
2023/02/02 07:05:58;;;;;;;3.83;3.53;;;14.90;63.90;;;;;;5018674;28;20423;-10
2023/02/02 07:08:24;;;;;;;4.38;3.97;;;14.90;64.20;;;;;;5013036;28;20044;-14
2023/02/02 07:10:49;;;;;;;4.43;4.03;;;14.80;64.30;;;;;;5013297;28;20049;-10
2023/02/02 07:13:15;;;;;;;4.90;3.85;;;14.80;64.60;;;;;;5042325;28;20080;-10
2023/02/02 07:15:41;;;;;;;4.45;4.15;;;14.90;64.40;;;;;;5028529;28;20160;-10
2023/02/02 07:18:06;;;;;;;3.65;3.35;;;14.80;64.00;;;;;;5013006;28;20132;-10
2023/02/02 07:20:32;;;;;;;3.60;3.40;;;14.80;64.40;;;;;;5016829;28;20044;-11
2023/02/02 07:22:57;;;;;;;3.92;3.63;;;14.80;64.40;;;;;;5010863;28;20680;-11
2023/02/02 07:25:23;;;;;;;4.10;3.70;;;14.90;64.10;;;;;;5016861;28;20075;-10
2023/02/02 07:27:52;;;;;;;3.90;3.53;;;15.10;63.60;;;;;;5012306;28;20452;-10
2023/02/02 07:30:18;;;;;;;3.90;3.60;;;15.10;63.60;;;;;;5013215;28;20041;-10
2023/02/02 07:32:48;;;;;;;4.13;3.75;;;15.20;63.30;;;;;;5032497;28;20106;-10
2023/02/02 07:35:14;;;;;;;4.55;3.08;;;15.00;64.00;;;;;;5029603;28;20048;-10
2023/02/02 07:37:39;;;;;;;3.22;2.97;;;14.90;64.30;;;;;;5029945;28;20099;-10
2023/02/02 07:40:06;;;;;;;3.42;3.13;;;15.00;64.10;;;;;;5026866;28;20636;-10
2023/02/02 07:42:32;;;;;;;3.92;3.10;;;15.10;63.60;;;;;;5028553;28;20551;-10
2023/02/02 07:44:58;;;;;;;3.72;3.42;;;15.10;63.60;;;;;;5023570;28;20140;-11
2023/02/02 07:47:24;;;;;;;2.95;2.75;;;15.10;63.80;;;;;;5011088;28;20743;-10
2023/02/02 07:49:49;;;;;;;2.97;2.70;;;15.00;64.00;;;;;;5030182;28;20040;-13
2023/02/02 07:52:15;;;;;;;3.40;3.10;;;15.10;64.00;;;;;;5028230;28;20049;-10
2023/02/02 07:54:40;;;;;;;4.93;3.35;;;15.00;63.90;;;;;;5037271;28;20568;-13
2023/02/02 07:57:06;;;;;;;3.28;2.97;;;14.90;64.20;;;;;;5039494;28;20107;-10
2023/02/02 07:59:32;;;;;;;3.25;2.92;;;14.90;64.40;;;;;;5027210;28;20098;-18
2023/02/02 08:01:58;;;;;;;3.17;2.97;;;14.90;64.40;;;;;;5028056;28;20053;-14
2023/02/02 08:04:23;;;;;;;3.33;3.03;;;14.90;64.20;;;;;;5028482;28;20689;-10
2023/02/02 08:06:49;;;;;;;3.22;2.70;;;15.00;64.40;;;;;;5029999;28;20049;-11
2023/02/02 08:09:14;;;;;;;3.25;3.05;;;14.90;64.30;;;;;;5035188;28;20036;-10
2023/02/02 08:11:40;;;;;;;3.13;2.83;;;15.00;64.40;;;;;;5053380;28;20045;-10
2023/02/02 08:14:06;;;;;;;3.17;2.78;;;14.90;64.20;;;;;;5044634;28;20052;-17
2023/02/02 08:16:32;;;;;;;3.28;2.97;;;14.80;64.80;;;;;;5057485;28;20033;-16
2023/02/02 08:18:57;;;;;;;2.80;2.60;;;14.70;65.10;;;;;;5048633;28;20072;-14
2023/02/02 08:21:23;;;;;;;3.03;2.72;;;14.80;65.00;;;;;;5041595;28;20041;-16
2023/02/02 08:23:48;;;;;;;3.10;2.60;;;14.80;64.80;;;;;;5046361;28;20423;-11
2023/02/02 08:26:25;;;;;;;2.88;2.67;;;14.80;66.00;;;;;;5060867;28;20037;-10
2023/02/02 08:28:55;;;;;;;2.80;2.60;;;14.80;65.00;;;;;;5042456;28;20463;-16
2023/02/02 08:31:23;;;;;;;2.90;2.70;;;14.70;65.00;;;;;;5046387;28;20059;-18
2023/02/02 08:33:48;;;;;;;3.60;2.70;;;14.70;65.00;;;;;;5054253;28;20064;-19
2023/02/02 08:36:15;;;;;;;3.17;2.88;;;14.70;65.00;;;;;;5045068;28;20044;-11
2023/02/02 08:38:41;;;;;;;5.75;3.03;;;14.70;64.90;;;;;;5050407;28;20114;-10
2023/02/02 08:41:07;;;;;;;3.33;2.30;;;14.70;65.90;;;;;;5047185;28;20087;-10
2023/02/02 08:43:33;;;;;;;3.38;2.47;;;14.80;64.80;;;;;;5045573;28;20064;-10
2023/02/02 08:45:59;;;;;;;2.72;2.53;;;14.80;64.80;;;;;;5053783;28;20045;-11
2023/02/02 08:48:24;;;;;;;2.25;2.05;;;14.70;64.90;;;;;;5054152;28;20127;-10
2023/02/02 08:50:53;;;;;;;2.40;2.20;;;14.80;64.80;;;;;;5062121;28;20048;-11
2023/02/02 08:53:19;;;;;;;1.90;1.80;;;14.80;64.80;;;;;;5056604;28;20124;-10
2023/02/02 08:55:45;;;;;;;2.72;2.53;;;14.80;64.80;;;;;;5046083;28;20132;-9
2023/02/02 08:58:10;;;;;;;2.47;2.05;;;14.80;65.20;;;;;;5041804;28;20072;-9
2023/02/02 09:00:36;;;;;;;2.15;1.90;;;14.80;64.50;;;;;;5045466;28;20056;-9
2023/02/02 09:03:01;;;;;;;2.65;2.13;;;14.80;64.70;;;;;;5052668;28;20108;-10
2023/02/02 09:05:27;;;;;;;2.58;2.38;;;14.70;64.80;;;;;;5055097;28;20040;-11
2023/02/02 09:07:52;;;;;;;2.40;2.20;;;14.70;64.80;;;;;;5050863;28;20045;-9
2023/02/02 09:10:18;;;;;;;2.30;2.10;;;14.70;64.80;;;;;;5042679;28;20036;-26
2023/02/02 09:12:44;;;;;;;2.45;2.25;;;14.70;64.70;;;;;;5045902;28;20698;-12
2023/02/02 09:15:10;;;;;;;2.05;1.95;;;14.70;64.80;;;;;;5054850;28;20033;-10
2023/02/02 09:17:36;;;;;;;2.30;2.13;;;14.70;64.90;;;;;;5065957;28;20501;-9
2023/02/02 09:20:02;;;;;;;2.33;2.13;;;14.70;64.90;;;;;;5065140;28;20036;-8
2023/02/02 09:22:27;;;;;;;2.30;2.10;;;14.70;64.60;;;;;;5065527;28;20071;-13
2023/02/02 09:24:53;;;;;;;2.50;2.15;;;14.70;65.40;;;;;;5047337;28;20044;-9
2023/02/02 09:27:19;;;;;;;2.38;2.17;;;14.70;64.70;;;;;;5048700;28;20053;-17
2023/02/02 09:29:44;;;;;;;2.58;2.38;;;14.70;64.50;;;;;;5060624;28;20064;-13
2023/02/02 09:32:10;;;;;;;2.20;2.00;;;14.70;64.70;;;;;;5054690;28;20045;-12
2023/02/02 09:34:35;;;;;;;2.22;2.10;;;14.70;64.70;;;;;;5058400;28;20424;-9
2023/02/02 09:37:01;;;;;;;2.20;2.10;;;14.70;64.70;;;;;;5049759;28;20102;-9
2023/02/02 09:39:26;;;;;;;2.40;2.20;;;14.70;64.70;;;;;;5070270;28;20127;-14
2023/02/02 09:41:58;;;;;;;1.92;1.75;;;14.70;64.70;;;;;;5057965;28;20047;-12
2023/02/02 09:44:27;;;;;;;2.25;2.00;;;14.70;64.80;;;;;;5045940;28;20564;-9
2023/02/02 09:47:05;;;;;;;2.38;2.17;;;14.70;64.90;;;;;;5062833;28;20139;-17
2023/02/02 09:50:00;;;;;;;1.90;1.80;;;14.80;64.60;;;;;;5045033;28;20044;-14
2023/02/02 09:52:40;;;;;;;2.60;1.50;;;14.70;64.50;;;;;;5036353;28;20041;-14
2023/02/02 09:55:13;;;;;;;1.85;1.75;;;14.70;64.70;;;;;;5048182;28;20049;-20
2023/02/02 09:57:44;;;;;;;2.08;1.98;;;14.80;64.80;;;;;;5057065;28;20420;-11
2023/02/02 10:00:36;;;;;;;2.47;2.00;;;14.80;64.80;;;;;;5031454;28;20048;-16
2023/02/02 10:03:36;;;;;;;2.33;2.15;;;15.00;64.70;;;;;;5060902;28;20085;-10
2023/02/02 10:06:13;;;;;;;1.92;1.83;;;14.80;65.20;;;;;;5064185;28;20044;-10
2023/02/02 10:08:42;;;;;;;2.20;2.00;;;14.80;65.40;;;;;;5046181;28;20404;-13
2023/02/02 10:11:31;;;;;;;2.25;2.08;;;14.80;65.80;;;;;;5053518;28;20033;-19
2023/02/02 10:14:00;;;;;;;2.03;1.90;;;14.90;65.30;;;;;;5053582;28;20071;-10
2023/02/02 10:16:26;;;;;;;2.08;1.98;;;14.90;65.30;;;;;;5060462;28;20096;-24
2023/02/02 10:18:55;;;;;;;2.53;2.38;;;14.90;65.30;;;;;;5053201;28;20037;-13
2023/02/02 10:21:28;;;;;;;2.22;2.13;;;15.00;65.10;;;;;;5040631;28;20052;-24
2023/02/02 10:23:56;;;;;;;2.10;2.00;;;14.90;65.30;;;;;;5054884;28;20124;-12
2023/02/02 10:26:22;;;;;;;2.25;2.08;;;14.90;65.70;;;;;;5046941;28;20287;-18
2023/02/02 10:29:09;;;;;;;2.00;1.90;;;14.90;65.40;;;;;;5048276;28;20064;-9
2023/02/02 10:31:52;;;;;;;2.33;2.20;;;14.90;65.30;;;;;;5051362;28;20042;-13
2023/02/02 10:34:39;;;;;;;2.05;1.95;;;14.90;65.70;;;;;;5037130;28;20049;-9
2023/02/02 10:37:21;;;;;;;2.10;2.00;;;15.00;65.60;;;;;;5045836;28;20076;-9
2023/02/02 10:39:56;;;;;;;2.30;2.10;;;15.10;65.00;;;;;;5055260;28;20060;-18
2023/02/02 10:42:44;;;;;;;2.60;2.40;;;15.00;65.10;;;;;;5046672;28;20048;-13
2023/02/02 10:45:17;;;;;;;1.67;1.58;;;15.00;65.50;;;;;;5042847;28;20047;-9
2023/02/02 10:47:43;;;;;;;1.90;1.80;;;14.90;65.80;;;;;;5062480;28;20048;-9
2023/02/02 10:50:11;;;;;;;2.00;1.90;;;14.90;65.80;;;;;;5053749;28;20041;-9
2023/02/02 10:52:37;;;;;;;2.10;2.00;;;15.00;65.80;;;;;;5045011;28;20048;-9
2023/02/02 10:55:09;;;;;;;2.10;2.00;;;15.00;65.40;;;;;;5058714;28;20032;-9
2023/02/02 10:58:02;;;;;;;2.08;1.98;;;15.00;65.70;;;;;;5063635;28;20053;-12
2023/02/02 11:00:36;;;;;;;2.17;2.00;;;14.90;65.90;;;;;;5047132;28;21691;-14
2023/02/02 11:03:03;;;;;;;1.63;1.52;;;14.90;66.00;;;;;;5069554;28;20051;-9
2023/02/02 11:08:15;;;;;;;2.05;1.95;;;15.00;65.60;;;;;;5058577;28;20044;-9
2023/02/02 11:10:42;;;;;;;2.58;2.08;;;14.80;66.00;;;;;;5048132;28;20123;-10
2023/02/02 11:13:35;;;;;;;1.80;1.70;;;14.80;66.10;;;;;;5043163;28;20518;-11
2023/02/02 11:16:13;;;;;;;1.48;1.38;;;14.80;66.10;;;;;;5070076;28;20037;-12
2023/02/02 11:18:39;;;;;;;1.88;1.73;;;14.90;65.90;;;;;;5052963;28;20414;-9
2023/02/02 11:21:30;;;;;;;1.75;1.65;;;15.00;65.70;;;;;;5043433;28;20588;-12
2023/02/02 11:24:04;;;;;;;1.90;1.80;;;15.10;65.50;;;;;;5068673;28;20055;-16
2023/02/02 11:26:49;;;;;;;1.50;1.40;;;15.10;65.20;;;;;;5044595;28;20068;-11
2023/02/02 11:29:21;;;;;;;1.65;1.55;;;15.10;65.00;;;;;;5064518;28;20091;-9
2023/02/02 11:31:47;;;;;;;1.52;1.42;;;15.20;64.90;;;;;;5045953;28;20095;-12
2023/02/02 11:34:12;;;;;;;1.58;1.48;;;15.20;64.80;;;;;;5044502;28;20053;-9
2023/02/02 11:36:38;;;;;;;1.70;1.60;;;15.20;64.70;;;;;;5048168;28;20029;-15
2023/02/02 11:39:21;;;;;;;1.90;1.70;;;15.00;65.10;;;;;;5057234;28;20037;-8
2023/02/02 11:41:46;;;;;;;1.70;1.60;;;15.10;65.30;;;;;;5043609;28;20041;-9
2023/02/02 11:44:22;;;;;;;2.03;1.45;;;15.30;64.40;;;;;;5057251;28;20032;-9
2023/02/02 11:46:48;;;;;;;1.85;1.52;;;15.10;64.80;;;;;;5057759;28;20566;-9
2023/02/02 11:49:15;;;;;;;1.70;1.60;;;15.10;64.90;;;;;;5067921;28;20021;-13
2023/02/02 11:51:41;;;;;;;1.70;1.60;;;15.00;65.10;;;;;;5059642;28;20032;-9
2023/02/02 11:54:17;;;;;;;1.30;1.20;;;15.00;65.30;;;;;;5064846;28;20114;-17
2023/02/02 11:56:47;;;;;;;1.30;1.20;;;15.00;65.30;;;;;;5073762;28;20500;-9
2023/02/02 11:59:26;;;;;;;1.50;1.40;;;15.10;64.80;;;;;;5063426;28;20100;-9
2023/02/02 12:01:51;;;;;;;1.45;1.20;;;15.20;64.60;;;;;;5059343;28;20040;-9
2023/02/02 12:04:17;;;;;;;3.05;1.30;;;15.20;64.40;;;;;;5052628;28;20025;-9
2023/02/02 12:06:43;;;;;;;2.92;1.48;;;15.20;65.20;;;;;;5045410;28;20107;-9
2023/02/02 12:09:16;;;;;;;1.50;1.30;;;15.20;64.60;;;;;;5053655;28;20068;-20
2023/02/02 12:12:10;;;;;;;2.17;1.48;;;15.20;64.60;;;;;;5050892;28;20261;-9
2023/02/02 12:15:09;;;;;;;1.52;1.40;;;15.30;64.40;;;;;;5058193;28;20033;-10
2023/02/02 12:17:44;;;;;;;3.63;1.50;;;15.20;64.40;;;;;;5057661;28;20033;-19
2023/02/02 12:20:35;;;;;;;3.15;1.60;;;15.10;64.90;;;;;;5059151;28;20045;-18
2023/02/02 12:23:38;;;;;;;2.15;1.48;;;15.10;65.50;;;;;;5042525;28;20977;-15
2023/02/02 12:26:25;;;;;;;1.50;1.40;;;15.10;65.40;;;;;;5051593;28;20058;-10
2023/02/02 12:29:21;;;;;;;1.45;1.35;;;15.00;65.70;;;;;;5062421;28;20044;-23
2023/02/02 12:31:58;;;;;;;4.22;1.25;;;14.90;66.60;;;;;;5054762;28;20068;-16
2023/02/02 12:34:35;;;;;;;1.40;1.30;;;15.00;66.10;;;;;;5044471;28;20100;-10
2023/02/02 12:37:32;;;;;;;2.88;1.42;;;14.90;66.70;;;;;;5055773;28;20029;-10
2023/02/02 12:40:01;;;;;;;1.85;1.40;;;14.90;67.00;;;;;;5066229;28;20118;-14
2023/02/02 12:42:47;;;;;;;2.17;1.80;;;15.00;66.70;;;;;;5056703;28;20044;-9
2023/02/02 12:45:31;;;;;;;2.60;1.42;;;14.90;66.90;;;;;;5056659;28;20036;-18
2023/02/02 12:48:11;;;;;;;3.40;1.30;;;15.20;66.50;;;;;;5035462;28;20045;-9
2023/02/02 12:50:37;;;;;;;1.35;1.25;;;15.10;66.90;;;;;;5046508;28;20053;-13
2023/02/02 12:53:16;;;;;;;1.13;1.02;;;15.00;66.80;;;;;;5051636;28;20808;-9
2023/02/02 12:55:59;;;;;;;1.20;1.02;;;14.90;67.00;;;;;;5025608;28;20041;-9
2023/02/02 12:58:38;;;;;;;2.22;1.27;;;15.10;67.30;;;;;;5061164;28;20057;-9
2023/02/02 13:01:49;;;;;;;3.83;1.40;;;15.10;68.00;;;;;;5042950;28;20062;-20
2023/02/02 13:04:20;;;;;;;1.75;1.42;;;15.00;67.20;;;;;;4986980;28;20127;-10
2023/02/02 13:07:27;;;;;;;1.25;1.15;;;15.10;67.00;;;;;;4984051;28;20536;-9
2023/02/02 13:10:10;;;;;;;2.53;1.27;;;15.20;66.40;;;;;;4992269;28;20096;-13